sensor_id;sensor_type;location;lat;lon;timestamp;P1;durP1;ratioP1;P2;durP2;ratioP2
11481;SDS011;5797;51.662;6.748;2022-11-14T00:01:40;18.57;;;10.40;;
11481;SDS011;5797;51.662;6.748;2022-11-14T00:04:27;19.10;;;10.13;;
11481;SDS011;5797;51.662;6.748;2022-11-14T00:07:15;18.23;;;10.60;;
11481;SDS011;5797;51.662;6.748;2022-11-14T00:10:02;18.27;;;10.87;;
11481;SDS011;5797;51.662;6.748;2022-11-14T00:12:50;23.10;;;11.60;;
11481;SDS011;5797;51.662;6.748;2022-11-14T00:15:36;19.77;;;11.90;;
11481;SDS011;5797;51.662;6.748;2022-11-14T00:18:23;20.73;;;12.27;;
11481;SDS011;5797;51.662;6.748;2022-11-14T00:21:10;18.50;;;11.10;;
11481;SDS011;5797;51.662;6.748;2022-11-14T00:23:58;24.07;;;12.13;;
11481;SDS011;5797;51.662;6.748;2022-11-14T00:26:45;18.47;;;11.03;;
11481;SDS011;5797;51.662;6.748;2022-11-14T00:29:32;20.67;;;11.27;;
11481;SDS011;5797;51.662;6.748;2022-11-14T00:32:19;22.27;;;11.73;;
11481;SDS011;5797;51.662;6.748;2022-11-14T00:35:07;20.47;;;11.37;;
11481;SDS011;5797;51.662;6.748;2022-11-14T00:37:54;24.13;;;13.23;;
11481;SDS011;5797;51.662;6.748;2022-11-14T00:40:42;19.73;;;11.40;;
11481;SDS011;5797;51.662;6.748;2022-11-14T00:43:29;22.50;;;11.23;;
11481;SDS011;5797;51.662;6.748;2022-11-14T00:46:16;20.93;;;10.83;;
11481;SDS011;5797;51.662;6.748;2022-11-14T00:49:03;23.37;;;11.83;;
11481;SDS011;5797;51.662;6.748;2022-11-14T00:51:50;20.80;;;12.13;;
11481;SDS011;5797;51.662;6.748;2022-11-14T00:54:37;16.57;;;10.23;;
11481;SDS011;5797;51.662;6.748;2022-11-14T00:57:25;20.63;;;11.33;;
11481;SDS011;5797;51.662;6.748;2022-11-14T01:00:13;21.57;;;11.47;;
11481;SDS011;5797;51.662;6.748;2022-11-14T01:03:00;22.00;;;11.70;;
11481;SDS011;5797;51.662;6.748;2022-11-14T01:05:48;20.37;;;11.77;;
11481;SDS011;5797;51.662;6.748;2022-11-14T01:08:38;22.57;;;11.97;;
11481;SDS011;5797;51.662;6.748;2022-11-14T01:11:25;21.17;;;11.80;;
11481;SDS011;5797;51.662;6.748;2022-11-14T01:14:14;22.53;;;12.27;;
11481;SDS011;5797;51.662;6.748;2022-11-14T01:17:01;22.30;;;11.93;;
11481;SDS011;5797;51.662;6.748;2022-11-14T01:19:48;24.87;;;13.37;;
11481;SDS011;5797;51.662;6.748;2022-11-14T01:22:35;22.73;;;12.50;;
11481;SDS011;5797;51.662;6.748;2022-11-14T01:25:22;22.13;;;12.10;;
11481;SDS011;5797;51.662;6.748;2022-11-14T01:28:09;21.43;;;12.37;;
11481;SDS011;5797;51.662;6.748;2022-11-14T01:31:07;22.90;;;12.10;;
11481;SDS011;5797;51.662;6.748;2022-11-14T01:33:55;23.63;;;12.27;;
11481;SDS011;5797;51.662;6.748;2022-11-14T01:36:42;23.60;;;12.80;;
11481;SDS011;5797;51.662;6.748;2022-11-14T01:39:29;23.73;;;12.20;;
11481;SDS011;5797;51.662;6.748;2022-11-14T01:42:16;24.97;;;12.87;;
11481;SDS011;5797;51.662;6.748;2022-11-14T01:48:28;22.10;;;12.60;;
11481;SDS011;5797;51.662;6.748;2022-11-14T01:51:20;21.77;;;11.83;;
11481;SDS011;5797;51.662;6.748;2022-11-14T01:54:10;21.30;;;12.50;;
11481;SDS011;5797;51.662;6.748;2022-11-14T01:57:00;25.70;;;12.27;;
11481;SDS011;5797;51.662;6.748;2022-11-14T01:59:49;24.80;;;12.50;;
11481;SDS011;5797;51.662;6.748;2022-11-14T02:02:38;24.47;;;12.80;;
11481;SDS011;5797;51.662;6.748;2022-11-14T02:05:26;23.20;;;12.83;;
11481;SDS011;5797;51.662;6.748;2022-11-14T02:08:13;22.67;;;12.47;;
11481;SDS011;5797;51.662;6.748;2022-11-14T02:11:01;22.37;;;12.60;;
11481;SDS011;5797;51.662;6.748;2022-11-14T02:13:48;20.90;;;11.90;;
11481;SDS011;5797;51.662;6.748;2022-11-14T02:16:35;21.33;;;12.07;;
11481;SDS011;5797;51.662;6.748;2022-11-14T02:19:23;20.83;;;11.60;;
11481;SDS011;5797;51.662;6.748;2022-11-14T02:22:11;21.50;;;11.57;;
11481;SDS011;5797;51.662;6.748;2022-11-14T02:24:58;25.17;;;13.20;;
11481;SDS011;5797;51.662;6.748;2022-11-14T02:27:45;23.60;;;12.10;;
11481;SDS011;5797;51.662;6.748;2022-11-14T02:30:32;23.93;;;12.90;;
11481;SDS011;5797;51.662;6.748;2022-11-14T02:33:19;20.90;;;12.00;;
11481;SDS011;5797;51.662;6.748;2022-11-14T02:36:06;21.63;;;12.03;;
11481;SDS011;5797;51.662;6.748;2022-11-14T02:38:54;21.30;;;12.07;;
11481;SDS011;5797;51.662;6.748;2022-11-14T02:41:41;24.03;;;12.57;;
11481;SDS011;5797;51.662;6.748;2022-11-14T02:44:27;25.03;;;12.00;;
11481;SDS011;5797;51.662;6.748;2022-11-14T02:47:14;26.17;;;12.53;;
11481;SDS011;5797;51.662;6.748;2022-11-14T02:50:01;25.97;;;12.60;;
11481;SDS011;5797;51.662;6.748;2022-11-14T02:52:48;22.37;;;12.03;;
11481;SDS011;5797;51.662;6.748;2022-11-14T02:55:37;23.50;;;12.03;;
11481;SDS011;5797;51.662;6.748;2022-11-14T02:58:24;25.67;;;13.27;;
11481;SDS011;5797;51.662;6.748;2022-11-14T03:01:11;21.70;;;12.00;;
11481;SDS011;5797;51.662;6.748;2022-11-14T03:04:05;20.30;;;12.00;;
11481;SDS011;5797;51.662;6.748;2022-11-14T03:06:52;24.03;;;13.10;;
11481;SDS011;5797;51.662;6.748;2022-11-14T03:09:39;25.70;;;11.67;;
11481;SDS011;5797;51.662;6.748;2022-11-14T03:12:28;21.47;;;12.47;;
11481;SDS011;5797;51.662;6.748;2022-11-14T03:15:16;21.50;;;11.50;;
11481;SDS011;5797;51.662;6.748;2022-11-14T03:18:03;22.97;;;11.23;;
11481;SDS011;5797;51.662;6.748;2022-11-14T03:20:50;23.17;;;11.87;;
11481;SDS011;5797;51.662;6.748;2022-11-14T03:23:36;26.30;;;12.40;;
11481;SDS011;5797;51.662;6.748;2022-11-14T03:26:23;22.87;;;11.90;;
11481;SDS011;5797;51.662;6.748;2022-11-14T03:29:12;22.47;;;12.37;;
11481;SDS011;5797;51.662;6.748;2022-11-14T03:31:59;23.63;;;12.13;;
11481;SDS011;5797;51.662;6.748;2022-11-14T03:34:46;26.13;;;13.07;;
11481;SDS011;5797;51.662;6.748;2022-11-14T03:37:33;23.87;;;12.40;;
11481;SDS011;5797;51.662;6.748;2022-11-14T03:40:20;25.87;;;12.33;;
11481;SDS011;5797;51.662;6.748;2022-11-14T03:43:07;28.37;;;12.60;;
11481;SDS011;5797;51.662;6.748;2022-11-14T03:45:57;27.07;;;11.43;;
11481;SDS011;5797;51.662;6.748;2022-11-14T03:48:45;24.47;;;11.30;;
11481;SDS011;5797;51.662;6.748;2022-11-14T03:51:32;22.27;;;12.60;;
11481;SDS011;5797;51.662;6.748;2022-11-14T03:54:22;25.13;;;12.07;;
11481;SDS011;5797;51.662;6.748;2022-11-14T03:57:09;24.43;;;12.90;;
11481;SDS011;5797;51.662;6.748;2022-11-14T03:59:56;24.67;;;12.20;;
11481;SDS011;5797;51.662;6.748;2022-11-14T04:02:45;26.83;;;13.03;;
11481;SDS011;5797;51.662;6.748;2022-11-14T04:05:33;26.70;;;13.40;;
11481;SDS011;5797;51.662;6.748;2022-11-14T04:08:21;23.67;;;12.07;;
11481;SDS011;5797;51.662;6.748;2022-11-14T04:11:12;24.03;;;12.23;;
11481;SDS011;5797;51.662;6.748;2022-11-14T04:13:59;20.13;;;12.03;;
11481;SDS011;5797;51.662;6.748;2022-11-14T04:17:01;28.40;;;12.10;;
11481;SDS011;5797;51.662;6.748;2022-11-14T04:19:50;23.07;;;11.73;;
11481;SDS011;5797;51.662;6.748;2022-11-14T04:22:37;21.37;;;11.80;;
11481;SDS011;5797;51.662;6.748;2022-11-14T04:25:24;26.57;;;12.57;;
11481;SDS011;5797;51.662;6.748;2022-11-14T04:28:11;26.40;;;12.67;;
11481;SDS011;5797;51.662;6.748;2022-11-14T04:30:59;26.73;;;12.90;;
11481;SDS011;5797;51.662;6.748;2022-11-14T04:33:46;23.50;;;11.23;;
11481;SDS011;5797;51.662;6.748;2022-11-14T04:36:34;24.33;;;12.60;;
11481;SDS011;5797;51.662;6.748;2022-11-14T04:39:21;25.27;;;12.63;;
11481;SDS011;5797;51.662;6.748;2022-11-14T04:42:08;21.70;;;11.83;;
11481;SDS011;5797;51.662;6.748;2022-11-14T04:44:55;22.77;;;11.60;;
11481;SDS011;5797;51.662;6.748;2022-11-14T04:47:41;25.47;;;13.37;;
11481;SDS011;5797;51.662;6.748;2022-11-14T04:50:28;25.43;;;12.00;;
11481;SDS011;5797;51.662;6.748;2022-11-14T04:53:16;27.50;;;12.83;;
11481;SDS011;5797;51.662;6.748;2022-11-14T04:56:03;21.73;;;11.77;;
11481;SDS011;5797;51.662;6.748;2022-11-14T04:58:51;24.67;;;12.47;;
11481;SDS011;5797;51.662;6.748;2022-11-14T05:01:37;27.30;;;12.07;;
11481;SDS011;5797;51.662;6.748;2022-11-14T05:04:24;24.57;;;11.90;;
11481;SDS011;5797;51.662;6.748;2022-11-14T05:07:11;21.60;;;11.23;;
11481;SDS011;5797;51.662;6.748;2022-11-14T05:10:00;24.47;;;13.07;;
11481;SDS011;5797;51.662;6.748;2022-11-14T05:12:47;23.23;;;11.80;;
11481;SDS011;5797;51.662;6.748;2022-11-14T05:15:34;21.87;;;11.17;;
11481;SDS011;5797;51.662;6.748;2022-11-14T05:18:21;22.57;;;11.47;;
11481;SDS011;5797;51.662;6.748;2022-11-14T05:21:09;21.40;;;10.97;;
11481;SDS011;5797;51.662;6.748;2022-11-14T05:23:56;25.53;;;12.50;;
11481;SDS011;5797;51.662;6.748;2022-11-14T05:26:45;23.23;;;10.87;;
11481;SDS011;5797;51.662;6.748;2022-11-14T05:29:32;22.67;;;11.43;;
11481;SDS011;5797;51.662;6.748;2022-11-14T05:32:19;23.90;;;12.20;;
11481;SDS011;5797;51.662;6.748;2022-11-14T05:35:07;27.33;;;11.27;;
11481;SDS011;5797;51.662;6.748;2022-11-14T05:37:54;28.03;;;12.40;;
11481;SDS011;5797;51.662;6.748;2022-11-14T05:40:44;23.07;;;11.70;;
11481;SDS011;5797;51.662;6.748;2022-11-14T05:43:32;23.90;;;12.03;;
11481;SDS011;5797;51.662;6.748;2022-11-14T05:46:20;23.77;;;11.97;;
11481;SDS011;5797;51.662;6.748;2022-11-14T05:49:06;24.30;;;12.57;;
11481;SDS011;5797;51.662;6.748;2022-11-14T05:51:53;31.00;;;12.53;;
11481;SDS011;5797;51.662;6.748;2022-11-14T05:54:40;20.80;;;11.00;;
11481;SDS011;5797;51.662;6.748;2022-11-14T05:57:29;27.33;;;12.20;;
11481;SDS011;5797;51.662;6.748;2022-11-14T06:00:17;24.50;;;12.07;;
11481;SDS011;5797;51.662;6.748;2022-11-14T06:03:05;26.87;;;12.77;;
11481;SDS011;5797;51.662;6.748;2022-11-14T06:05:51;26.50;;;13.37;;
11481;SDS011;5797;51.662;6.748;2022-11-14T06:08:38;24.00;;;12.40;;
11481;SDS011;5797;51.662;6.748;2022-11-14T06:11:26;22.03;;;12.07;;
11481;SDS011;5797;51.662;6.748;2022-11-14T06:14:13;25.30;;;12.27;;
11481;SDS011;5797;51.662;6.748;2022-11-14T06:17:01;21.50;;;12.00;;
11481;SDS011;5797;51.662;6.748;2022-11-14T06:19:48;22.43;;;12.10;;
11481;SDS011;5797;51.662;6.748;2022-11-14T06:22:35;24.63;;;12.70;;
11481;SDS011;5797;51.662;6.748;2022-11-14T06:25:22;25.73;;;13.03;;
11481;SDS011;5797;51.662;6.748;2022-11-14T06:28:08;25.27;;;11.67;;
11481;SDS011;5797;51.662;6.748;2022-11-14T06:30:56;28.00;;;12.37;;
11481;SDS011;5797;51.662;6.748;2022-11-14T06:33:45;24.67;;;12.30;;
11481;SDS011;5797;51.662;6.748;2022-11-14T06:36:32;23.73;;;12.27;;
11481;SDS011;5797;51.662;6.748;2022-11-14T06:39:19;29.23;;;13.40;;
11481;SDS011;5797;51.662;6.748;2022-11-14T06:42:06;20.87;;;11.27;;
11481;SDS011;5797;51.662;6.748;2022-11-14T06:44:53;26.90;;;12.03;;
11481;SDS011;5797;51.662;6.748;2022-11-14T06:47:40;22.93;;;12.07;;
11481;SDS011;5797;51.662;6.748;2022-11-14T06:50:28;21.03;;;12.10;;
11481;SDS011;5797;51.662;6.748;2022-11-14T06:53:15;21.13;;;12.07;;
11481;SDS011;5797;51.662;6.748;2022-11-14T06:56:02;23.63;;;12.47;;
11481;SDS011;5797;51.662;6.748;2022-11-14T06:58:51;23.93;;;12.53;;
11481;SDS011;5797;51.662;6.748;2022-11-14T07:01:38;29.30;;;13.13;;
11481;SDS011;5797;51.662;6.748;2022-11-14T07:04:25;22.30;;;11.63;;
11481;SDS011;5797;51.662;6.748;2022-11-14T07:07:13;22.87;;;11.83;;
11481;SDS011;5797;51.662;6.748;2022-11-14T07:10:00;28.57;;;12.60;;
11481;SDS011;5797;51.662;6.748;2022-11-14T07:12:47;20.30;;;11.73;;
11481;SDS011;5797;51.662;6.748;2022-11-14T07:15:34;26.40;;;12.73;;
11481;SDS011;5797;51.662;6.748;2022-11-14T07:18:21;22.13;;;11.63;;
11481;SDS011;5797;51.662;6.748;2022-11-14T07:21:08;25.73;;;12.53;;
11481;SDS011;5797;51.662;6.748;2022-11-14T07:23:58;23.17;;;12.43;;
11481;SDS011;5797;51.662;6.748;2022-11-14T07:26:45;21.70;;;11.67;;
11481;SDS011;5797;51.662;6.748;2022-11-14T07:29:32;24.93;;;11.97;;
11481;SDS011;5797;51.662;6.748;2022-11-14T07:32:19;30.00;;;12.00;;
11481;SDS011;5797;51.662;6.748;2022-11-14T07:35:06;24.87;;;13.13;;
11481;SDS011;5797;51.662;6.748;2022-11-14T07:37:59;25.17;;;12.07;;
11481;SDS011;5797;51.662;6.748;2022-11-14T07:40:53;26.53;;;12.40;;
11481;SDS011;5797;51.662;6.748;2022-11-14T07:43:44;24.77;;;12.27;;
11481;SDS011;5797;51.662;6.748;2022-11-14T07:46:31;24.07;;;12.10;;
11481;SDS011;5797;51.662;6.748;2022-11-14T07:49:19;21.23;;;12.10;;
11481;SDS011;5797;51.662;6.748;2022-11-14T07:52:05;26.17;;;12.80;;
11481;SDS011;5797;51.662;6.748;2022-11-14T07:54:52;25.90;;;12.57;;
11481;SDS011;5797;51.662;6.748;2022-11-14T07:57:41;23.43;;;12.47;;
11481;SDS011;5797;51.662;6.748;2022-11-14T08:00:33;22.67;;;11.53;;
11481;SDS011;5797;51.662;6.748;2022-11-14T08:03:20;23.47;;;12.77;;
11481;SDS011;5797;51.662;6.748;2022-11-14T08:06:08;25.53;;;12.60;;
11481;SDS011;5797;51.662;6.748;2022-11-14T08:08:56;26.73;;;12.23;;
11481;SDS011;5797;51.662;6.748;2022-11-14T08:11:43;27.30;;;12.77;;
11481;SDS011;5797;51.662;6.748;2022-11-14T08:14:37;28.17;;;13.40;;
11481;SDS011;5797;51.662;6.748;2022-11-14T08:17:24;26.60;;;12.67;;
11481;SDS011;5797;51.662;6.748;2022-11-14T08:20:11;26.50;;;12.90;;
11481;SDS011;5797;51.662;6.748;2022-11-14T08:23:03;26.07;;;12.83;;
11481;SDS011;5797;51.662;6.748;2022-11-14T08:25:51;25.20;;;13.63;;
11481;SDS011;5797;51.662;6.748;2022-11-14T08:28:38;24.53;;;13.47;;
11481;SDS011;5797;51.662;6.748;2022-11-14T08:31:26;28.93;;;12.80;;
11481;SDS011;5797;51.662;6.748;2022-11-14T08:34:13;27.17;;;13.07;;
11481;SDS011;5797;51.662;6.748;2022-11-14T08:37:01;28.70;;;13.53;;
11481;SDS011;5797;51.662;6.748;2022-11-14T08:39:47;23.40;;;13.43;;
11481;SDS011;5797;51.662;6.748;2022-11-14T08:42:34;28.73;;;13.90;;
11481;SDS011;5797;51.662;6.748;2022-11-14T08:45:39;32.07;;;14.43;;
11481;SDS011;5797;51.662;6.748;2022-11-14T08:48:27;26.40;;;13.17;;
11481;SDS011;5797;51.662;6.748;2022-11-14T08:51:15;34.20;;;14.20;;
11481;SDS011;5797;51.662;6.748;2022-11-14T08:54:02;28.13;;;14.07;;
11481;SDS011;5797;51.662;6.748;2022-11-14T08:56:49;30.23;;;13.97;;
11481;SDS011;5797;51.662;6.748;2022-11-14T08:59:36;29.97;;;14.37;;
11481;SDS011;5797;51.662;6.748;2022-11-14T09:02:23;24.87;;;13.37;;
11481;SDS011;5797;51.662;6.748;2022-11-14T09:05:12;29.77;;;14.40;;
11481;SDS011;5797;51.662;6.748;2022-11-14T09:07:59;29.93;;;14.57;;
11481;SDS011;5797;51.662;6.748;2022-11-14T09:10:45;30.13;;;14.13;;
11481;SDS011;5797;51.662;6.748;2022-11-14T09:13:33;27.93;;;13.80;;
11481;SDS011;5797;51.662;6.748;2022-11-14T09:16:20;25.13;;;13.57;;
11481;SDS011;5797;51.662;6.748;2022-11-14T09:19:07;26.67;;;13.30;;
11481;SDS011;5797;51.662;6.748;2022-11-14T09:21:55;31.37;;;14.90;;
11481;SDS011;5797;51.662;6.748;2022-11-14T09:24:43;28.77;;;14.37;;
11481;SDS011;5797;51.662;6.748;2022-11-14T09:27:31;27.23;;;14.20;;
11481;SDS011;5797;51.662;6.748;2022-11-14T09:30:18;25.63;;;14.10;;
11481;SDS011;5797;51.662;6.748;2022-11-14T09:33:06;27.93;;;15.20;;
11481;SDS011;5797;51.662;6.748;2022-11-14T09:35:56;29.27;;;14.50;;
11481;SDS011;5797;51.662;6.748;2022-11-14T09:38:45;27.17;;;15.07;;
11481;SDS011;5797;51.662;6.748;2022-11-14T09:41:36;29.17;;;15.50;;
11481;SDS011;5797;51.662;6.748;2022-11-14T09:44:38;29.80;;;14.97;;
11481;SDS011;5797;51.662;6.748;2022-11-14T09:47:35;25.53;;;15.10;;
11481;SDS011;5797;51.662;6.748;2022-11-14T09:50:25;34.13;;;14.90;;
11481;SDS011;5797;51.662;6.748;2022-11-14T09:53:15;27.20;;;14.67;;
11481;SDS011;5797;51.662;6.748;2022-11-14T09:56:10;26.27;;;15.43;;
11481;SDS011;5797;51.662;6.748;2022-11-14T09:58:58;25.23;;;15.10;;
11481;SDS011;5797;51.662;6.748;2022-11-14T10:01:46;25.87;;;14.37;;
11481;SDS011;5797;51.662;6.748;2022-11-14T10:04:42;31.13;;;15.10;;
11481;SDS011;5797;51.662;6.748;2022-11-14T10:07:38;27.80;;;14.50;;
11481;SDS011;5797;51.662;6.748;2022-11-14T10:10:36;26.87;;;15.03;;
11481;SDS011;5797;51.662;6.748;2022-11-14T10:13:35;27.67;;;14.90;;
11481;SDS011;5797;51.662;6.748;2022-11-14T10:16:35;32.27;;;17.00;;
11481;SDS011;5797;51.662;6.748;2022-11-14T10:19:28;27.70;;;14.50;;
11481;SDS011;5797;51.662;6.748;2022-11-14T10:22:20;29.40;;;15.80;;
11481;SDS011;5797;51.662;6.748;2022-11-14T10:25:16;27.70;;;16.43;;
11481;SDS011;5797;51.662;6.748;2022-11-14T10:28:11;32.97;;;16.63;;
11481;SDS011;5797;51.662;6.748;2022-11-14T10:31:08;28.43;;;15.57;;
11481;SDS011;5797;51.662;6.748;2022-11-14T10:34:03;26.10;;;14.77;;
11481;SDS011;5797;51.662;6.748;2022-11-14T10:36:55;31.30;;;15.60;;
11481;SDS011;5797;51.662;6.748;2022-11-14T10:39:47;25.07;;;14.10;;
11481;SDS011;5797;51.662;6.748;2022-11-14T10:42:36;25.40;;;13.77;;
11481;SDS011;5797;51.662;6.748;2022-11-14T10:45:25;22.80;;;13.60;;
11481;SDS011;5797;51.662;6.748;2022-11-14T10:48:16;30.50;;;15.30;;
11481;SDS011;5797;51.662;6.748;2022-11-14T10:51:18;27.07;;;13.67;;
11481;SDS011;5797;51.662;6.748;2022-11-14T10:54:09;28.43;;;14.83;;
11481;SDS011;5797;51.662;6.748;2022-11-14T10:56:59;26.07;;;13.67;;
11481;SDS011;5797;51.662;6.748;2022-11-14T10:59:46;27.00;;;15.10;;
11481;SDS011;5797;51.662;6.748;2022-11-14T11:02:45;29.77;;;14.43;;
11481;SDS011;5797;51.662;6.748;2022-11-14T11:05:43;27.80;;;15.23;;
11481;SDS011;5797;51.662;6.748;2022-11-14T11:08:31;25.93;;;14.53;;
11481;SDS011;5797;51.662;6.748;2022-11-14T11:11:51;23.57;;;14.57;;
11481;SDS011;5797;51.662;6.748;2022-11-14T11:14:42;30.10;;;13.87;;
11481;SDS011;5797;51.662;6.748;2022-11-14T11:17:29;24.00;;;13.13;;
11481;SDS011;5797;51.662;6.748;2022-11-14T11:20:25;24.30;;;12.23;;
11481;SDS011;5797;51.662;6.748;2022-11-14T11:23:21;22.33;;;11.87;;
11481;SDS011;5797;51.662;6.748;2022-11-14T11:26:15;21.53;;;11.60;;
11481;SDS011;5797;51.662;6.748;2022-11-14T11:29:06;20.30;;;11.07;;
11481;SDS011;5797;51.662;6.748;2022-11-14T11:32:00;18.53;;;10.30;;
11481;SDS011;5797;51.662;6.748;2022-11-14T11:34:47;15.50;;;8.93;;
11481;SDS011;5797;51.662;6.748;2022-11-14T11:37:35;17.83;;;9.23;;
11481;SDS011;5797;51.662;6.748;2022-11-14T11:40:27;15.93;;;8.63;;
11481;SDS011;5797;51.662;6.748;2022-11-14T11:43:16;18.47;;;9.20;;
11481;SDS011;5797;51.662;6.748;2022-11-14T11:46:28;16.00;;;9.03;;
11481;SDS011;5797;51.662;6.748;2022-11-14T11:49:18;14.23;;;8.13;;
11481;SDS011;5797;51.662;6.748;2022-11-14T11:52:12;12.10;;;8.13;;
11481;SDS011;5797;51.662;6.748;2022-11-14T11:55:02;15.33;;;7.20;;
11481;SDS011;5797;51.662;6.748;2022-11-14T11:58:01;14.33;;;8.43;;
11481;SDS011;5797;51.662;6.748;2022-11-14T12:00:51;15.33;;;7.90;;
11481;SDS011;5797;51.662;6.748;2022-11-14T12:03:40;11.80;;;6.87;;
11481;SDS011;5797;51.662;6.748;2022-11-14T12:06:28;12.43;;;7.80;;
11481;SDS011;5797;51.662;6.748;2022-11-14T12:09:20;12.50;;;7.40;;
11481;SDS011;5797;51.662;6.748;2022-11-14T12:12:22;12.53;;;7.03;;
11481;SDS011;5797;51.662;6.748;2022-11-14T12:15:17;10.33;;;7.13;;
11481;SDS011;5797;51.662;6.748;2022-11-14T12:18:16;14.63;;;7.13;;
11481;SDS011;5797;51.662;6.748;2022-11-14T12:21:09;11.53;;;6.60;;
11481;SDS011;5797;51.662;6.748;2022-11-14T12:30:21;10.33;;;6.63;;
11481;SDS011;5797;51.662;6.748;2022-11-14T12:33:09;10.27;;;6.83;;
11481;SDS011;5797;51.662;6.748;2022-11-14T12:35:58;10.07;;;6.33;;
11481;SDS011;5797;51.662;6.748;2022-11-14T12:38:48;11.70;;;6.17;;
11481;SDS011;5797;51.662;6.748;2022-11-14T12:41:36;10.87;;;6.43;;
11481;SDS011;5797;51.662;6.748;2022-11-14T12:44:32;9.37;;;5.90;;
11481;SDS011;5797;51.662;6.748;2022-11-14T12:47:23;8.60;;;5.33;;
11481;SDS011;5797;51.662;6.748;2022-11-14T12:50:29;12.03;;;6.03;;
11481;SDS011;5797;51.662;6.748;2022-11-14T12:53:40;10.30;;;6.60;;
11481;SDS011;5797;51.662;6.748;2022-11-14T12:59:39;12.00;;;6.80;;
11481;SDS011;5797;51.662;6.748;2022-11-14T13:05:58;12.37;;;6.33;;
11481;SDS011;5797;51.662;6.748;2022-11-14T13:09:04;10.50;;;6.53;;
11481;SDS011;5797;51.662;6.748;2022-11-14T13:12:17;11.57;;;6.70;;
11481;SDS011;5797;51.662;6.748;2022-11-14T13:15:29;12.40;;;7.33;;
11481;SDS011;5797;51.662;6.748;2022-11-14T13:18:50;14.70;;;7.27;;
11481;SDS011;5797;51.662;6.748;2022-11-14T13:22:22;14.30;;;7.13;;
11481;SDS011;5797;51.662;6.748;2022-11-14T13:25:21;14.47;;;8.10;;
11481;SDS011;5797;51.662;6.748;2022-11-14T13:31:46;14.70;;;8.47;;
11481;SDS011;5797;51.662;6.748;2022-11-14T13:34:39;19.63;;;9.87;;
11481;SDS011;5797;51.662;6.748;2022-11-14T13:37:36;17.03;;;8.97;;
11481;SDS011;5797;51.662;6.748;2022-11-14T13:40:44;14.10;;;8.50;;
11481;SDS011;5797;51.662;6.748;2022-11-14T13:43:41;12.70;;;7.97;;
11481;SDS011;5797;51.662;6.748;2022-11-14T13:46:37;14.00;;;7.90;;
11481;SDS011;5797;51.662;6.748;2022-11-14T13:49:40;13.37;;;7.10;;
11481;SDS011;5797;51.662;6.748;2022-11-14T13:52:40;11.43;;;6.70;;
11481;SDS011;5797;51.662;6.748;2022-11-14T13:55:31;11.80;;;7.60;;
11481;SDS011;5797;51.662;6.748;2022-11-14T13:58:29;11.83;;;7.27;;
11481;SDS011;5797;51.662;6.748;2022-11-14T14:01:27;13.00;;;7.33;;
11481;SDS011;5797;51.662;6.748;2022-11-14T14:04:27;10.63;;;6.47;;
11481;SDS011;5797;51.662;6.748;2022-11-14T14:07:22;11.30;;;6.80;;
11481;SDS011;5797;51.662;6.748;2022-11-14T14:10:18;11.73;;;6.73;;
11481;SDS011;5797;51.662;6.748;2022-11-14T14:13:14;10.63;;;6.27;;
11481;SDS011;5797;51.662;6.748;2022-11-14T14:16:10;9.70;;;6.27;;
11481;SDS011;5797;51.662;6.748;2022-11-14T14:19:01;9.70;;;6.20;;
11481;SDS011;5797;51.662;6.748;2022-11-14T14:21:54;11.83;;;7.00;;
11481;SDS011;5797;51.662;6.748;2022-11-14T14:24:48;13.07;;;6.57;;
11481;SDS011;5797;51.662;6.748;2022-11-14T14:27:46;14.20;;;6.53;;
11481;SDS011;5797;51.662;6.748;2022-11-14T14:30:39;10.67;;;6.83;;
11481;SDS011;5797;51.662;6.748;2022-11-14T14:33:26;12.37;;;6.57;;
11481;SDS011;5797;51.662;6.748;2022-11-14T14:36:17;10.93;;;6.83;;
11481;SDS011;5797;51.662;6.748;2022-11-14T14:39:10;11.87;;;7.20;;
11481;SDS011;5797;51.662;6.748;2022-11-14T14:42:03;10.20;;;6.87;;
11481;SDS011;5797;51.662;6.748;2022-11-14T14:44:57;11.97;;;7.33;;
11481;SDS011;5797;51.662;6.748;2022-11-14T14:47:45;14.07;;;7.23;;
11481;SDS011;5797;51.662;6.748;2022-11-14T14:50:34;11.37;;;7.23;;
11481;SDS011;5797;51.662;6.748;2022-11-14T14:53:24;13.30;;;7.73;;
11481;SDS011;5797;51.662;6.748;2022-11-14T14:56:16;15.33;;;8.70;;
11481;SDS011;5797;51.662;6.748;2022-11-14T14:59:17;12.13;;;7.50;;
11481;SDS011;5797;51.662;6.748;2022-11-14T15:02:10;15.57;;;8.00;;
11481;SDS011;5797;51.662;6.748;2022-11-14T15:04:59;14.53;;;7.67;;
11481;SDS011;5797;51.662;6.748;2022-11-14T15:07:47;13.67;;;7.93;;
11481;SDS011;5797;51.662;6.748;2022-11-14T15:10:35;13.77;;;8.00;;
11481;SDS011;5797;51.662;6.748;2022-11-14T15:13:23;12.83;;;7.63;;
11481;SDS011;5797;51.662;6.748;2022-11-14T15:16:11;13.00;;;8.17;;
11481;SDS011;5797;51.662;6.748;2022-11-14T15:18:59;12.80;;;8.20;;
11481;SDS011;5797;51.662;6.748;2022-11-14T15:22:00;16.40;;;8.13;;
11481;SDS011;5797;51.662;6.748;2022-11-14T15:28:11;13.87;;;8.10;;
11481;SDS011;5797;51.662;6.748;2022-11-14T15:31:01;14.90;;;8.03;;
11481;SDS011;5797;51.662;6.748;2022-11-14T15:34:03;14.73;;;8.33;;
11481;SDS011;5797;51.662;6.748;2022-11-14T15:37:16;12.60;;;7.93;;
11481;SDS011;5797;51.662;6.748;2022-11-14T15:40:14;14.23;;;8.50;;
11481;SDS011;5797;51.662;6.748;2022-11-14T15:46:24;15.03;;;8.57;;
11481;SDS011;5797;51.662;6.748;2022-11-14T15:49:20;15.57;;;9.13;;
11481;SDS011;5797;51.662;6.748;2022-11-14T15:52:16;17.27;;;8.73;;
11481;SDS011;5797;51.662;6.748;2022-11-14T15:55:14;16.07;;;9.10;;
11481;SDS011;5797;51.662;6.748;2022-11-14T15:58:01;15.67;;;8.00;;
11481;SDS011;5797;51.662;6.748;2022-11-14T16:01:27;18.83;;;9.07;;
11481;SDS011;5797;51.662;6.748;2022-11-14T16:04:34;15.90;;;8.93;;
11481;SDS011;5797;51.662;6.748;2022-11-14T16:07:40;20.43;;;9.67;;
11481;SDS011;5797;51.662;6.748;2022-11-14T16:10:47;19.87;;;9.70;;
11481;SDS011;5797;51.662;6.748;2022-11-14T16:13:52;17.33;;;9.63;;
11481;SDS011;5797;51.662;6.748;2022-11-14T16:16:58;13.13;;;8.53;;
11481;SDS011;5797;51.662;6.748;2022-11-14T16:20:05;15.57;;;8.83;;
11481;SDS011;5797;51.662;6.748;2022-11-14T16:23:14;15.30;;;8.57;;
11481;SDS011;5797;51.662;6.748;2022-11-14T16:26:20;15.10;;;9.13;;
11481;SDS011;5797;51.662;6.748;2022-11-14T16:29:26;14.37;;;9.17;;
11481;SDS011;5797;51.662;6.748;2022-11-14T16:32:32;13.40;;;8.30;;
11481;SDS011;5797;51.662;6.748;2022-11-14T16:35:39;21.57;;;13.00;;
11481;SDS011;5797;51.662;6.748;2022-11-14T16:38:45;19.30;;;9.93;;
11481;SDS011;5797;51.662;6.748;2022-11-14T16:41:58;17.60;;;9.47;;
11481;SDS011;5797;51.662;6.748;2022-11-14T16:45:04;16.17;;;9.20;;
11481;SDS011;5797;51.662;6.748;2022-11-14T16:48:11;17.60;;;10.30;;
11481;SDS011;5797;51.662;6.748;2022-11-14T16:51:18;17.80;;;9.50;;
11481;SDS011;5797;51.662;6.748;2022-11-14T16:54:44;15.80;;;9.07;;
11481;SDS011;5797;51.662;6.748;2022-11-14T16:57:50;19.03;;;9.33;;
11481;SDS011;5797;51.662;6.748;2022-11-14T17:00:56;19.33;;;9.77;;
11481;SDS011;5797;51.662;6.748;2022-11-14T17:04:01;19.87;;;9.27;;
11481;SDS011;5797;51.662;6.748;2022-11-14T17:07:12;16.50;;;9.90;;
11481;SDS011;5797;51.662;6.748;2022-11-14T17:10:22;16.00;;;9.20;;
11481;SDS011;5797;51.662;6.748;2022-11-14T17:13:29;17.63;;;9.63;;
11481;SDS011;5797;51.662;6.748;2022-11-14T17:16:35;13.67;;;8.70;;
11481;SDS011;5797;51.662;6.748;2022-11-14T17:19:41;17.87;;;9.67;;
11481;SDS011;5797;51.662;6.748;2022-11-14T17:22:50;17.70;;;9.70;;
11481;SDS011;5797;51.662;6.748;2022-11-14T17:25:59;17.30;;;9.70;;
11481;SDS011;5797;51.662;6.748;2022-11-14T17:29:06;17.63;;;9.47;;
11481;SDS011;5797;51.662;6.748;2022-11-14T17:32:11;18.20;;;9.93;;